<?xml version="1.0" encoding="UTF-8" standalone="no" ?>
<gpx xmlns="http://www.topografix.com/GPX/1/1" xmlns:xsi="http://www.w3.org/2001/XMLSchema-instance" xsi:schemaLocation="http://www.topografix.com/GPX/1/1 http://www.topografix.com/GPX/1/1/gpx.xsd" version="1.1" creator="VisuGPX - https://www.visugpx.com">
  <metadata>
    <name>GR20 - 4 - Usciolu - ECapanelle</name>
    <desc><![CDATA[Etape 4 entre Usciolu - ECapanelle]]></desc>
  </metadata>
  <trk>
    <name><![CDATA[GR20 - 4 - Usciolu - ECapanelle_1]]></name>
    <trkseg>
      <trkpt lat="41.93538" lon="9.20686">
        <ele>1751</ele>
        <time>2009-06-04T05:55:17Z</time>
      </trkpt>
      <trkpt lat="41.93556" lon="9.20706">
        <ele>1758</ele>
        <time>2009-06-04T05:56:17Z</time>
      </trkpt>
      <trkpt lat="41.93569" lon="9.20705">
        <ele>1766</ele>
        <time>2009-06-04T05:57:17Z</time>
      </trkpt>
      <trkpt lat="41.93574" lon="9.20712">
        <ele>1773</ele>
        <time>2009-06-04T05:58:17Z</time>
      </trkpt>
      <trkpt lat="41.93594" lon="9.20707">
        <ele>1777</ele>
        <time>2009-06-04T05:59:17Z</time>
      </trkpt>
      <trkpt lat="41.93611" lon="9.2071">
        <ele>1783</ele>
        <time>2009-06-04T06:00:17Z</time>
      </trkpt>
      <trkpt lat="41.93603" lon="9.20742">
        <ele>1787</ele>
        <time>2009-06-04T06:01:17Z</time>
      </trkpt>
      <trkpt lat="41.93616" lon="9.20754">
        <ele>1792</ele>
        <time>2009-06-04T06:02:17Z</time>
      </trkpt>
      <trkpt lat="41.93621" lon="9.20753">
        <ele>1796</ele>
        <time>2009-06-04T06:03:17Z</time>
      </trkpt>
      <trkpt lat="41.93638" lon="9.20777">
        <ele>1800</ele>
        <time>2009-06-04T06:04:17Z</time>
      </trkpt>
      <trkpt lat="41.93649" lon="9.20794">
        <ele>1807</ele>
        <time>2009-06-04T06:05:17Z</time>
      </trkpt>
      <trkpt lat="41.93658" lon="9.20818">
        <ele>1813</ele>
        <time>2009-06-04T06:06:17Z</time>
      </trkpt>
      <trkpt lat="41.93659" lon="9.20851">
        <ele>1819</ele>
        <time>2009-06-04T06:07:17Z</time>
      </trkpt>
      <trkpt lat="41.9366" lon="9.20899">
        <ele>1825</ele>
        <time>2009-06-04T06:08:17Z</time>
      </trkpt>
      <trkpt lat="41.93665" lon="9.20946">
        <ele>1830</ele>
        <time>2009-06-04T06:09:17Z</time>
      </trkpt>
      <trkpt lat="41.93677" lon="9.2098">
        <ele>1838</ele>
        <time>2009-06-04T06:10:17Z</time>
      </trkpt>
      <trkpt lat="41.93681" lon="9.21012">
        <ele>1845</ele>
        <time>2009-06-04T06:11:17Z</time>
      </trkpt>
      <trkpt lat="41.93693" lon="9.21041">
        <ele>1852</ele>
        <time>2009-06-04T06:12:17Z</time>
      </trkpt>
      <trkpt lat="41.93711" lon="9.21062">
        <ele>1859</ele>
        <time>2009-06-04T06:13:17Z</time>
      </trkpt>
      <trkpt lat="41.93719" lon="9.21111">
        <ele>1867</ele>
        <time>2009-06-04T06:14:17Z</time>
      </trkpt>
      <trkpt lat="41.93708" lon="9.2116">
        <ele>1873</ele>
        <time>2009-06-04T06:15:17Z</time>
      </trkpt>
      <trkpt lat="41.93727" lon="9.21187">
        <ele>1880</ele>
        <time>2009-06-04T06:16:17Z</time>
      </trkpt>
      <trkpt lat="41.93736" lon="9.21201">
        <ele>1882</ele>
        <time>2009-06-04T06:17:17Z</time>
      </trkpt>
      <trkpt lat="41.93768" lon="9.21215">
        <ele>1887</ele>
        <time>2009-06-04T06:18:17Z</time>
      </trkpt>
      <trkpt lat="41.93797" lon="9.21215">
        <ele>1895</ele>
        <time>2009-06-04T06:19:17Z</time>
      </trkpt>
      <trkpt lat="41.93817" lon="9.21205">
        <ele>1901</ele>
        <time>2009-06-04T06:20:17Z</time>
      </trkpt>
      <trkpt lat="41.93844" lon="9.21221">
        <ele>1910</ele>
        <time>2009-06-04T06:21:17Z</time>
      </trkpt>
      <trkpt lat="41.9385" lon="9.21226">
        <ele>1917</ele>
        <time>2009-06-04T06:22:17Z</time>
      </trkpt>
      <trkpt lat="41.93876" lon="9.21254">
        <ele>1922</ele>
        <time>2009-06-04T06:23:17Z</time>
      </trkpt>
      <trkpt lat="41.93914" lon="9.21295">
        <ele>1929</ele>
        <time>2009-06-04T06:24:17Z</time>
      </trkpt>
      <trkpt lat="41.93964" lon="9.21335">
        <ele>1930</ele>
        <time>2009-06-04T06:25:17Z</time>
      </trkpt>
      <trkpt lat="41.94023" lon="9.21333">
        <ele>1927</ele>
        <time>2009-06-04T06:26:17Z</time>
      </trkpt>
      <trkpt lat="41.94085" lon="9.21366">
        <ele>1925</ele>
        <time>2009-06-04T06:27:17Z</time>
      </trkpt>
      <trkpt lat="41.94137" lon="9.21401">
        <ele>1929</ele>
        <time>2009-06-04T06:28:17Z</time>
      </trkpt>
      <trkpt lat="41.94176" lon="9.21448">
        <ele>1934</ele>
        <time>2009-06-04T06:29:17Z</time>
      </trkpt>
      <trkpt lat="41.94215" lon="9.21507">
        <ele>1938</ele>
        <time>2009-06-04T06:30:17Z</time>
      </trkpt>
      <trkpt lat="41.94253" lon="9.21559">
        <ele>1936</ele>
        <time>2009-06-04T06:31:17Z</time>
      </trkpt>
      <trkpt lat="41.9427" lon="9.21614">
        <ele>1942</ele>
        <time>2009-06-04T06:32:17Z</time>
      </trkpt>
      <trkpt lat="41.94294" lon="9.21661">
        <ele>1947</ele>
        <time>2009-06-04T06:33:17Z</time>
      </trkpt>
      <trkpt lat="41.94314" lon="9.21684">
        <ele>1949</ele>
        <time>2009-06-04T06:34:17Z</time>
      </trkpt>
      <trkpt lat="41.94337" lon="9.21709">
        <ele>1951</ele>
        <time>2009-06-04T06:35:17Z</time>
      </trkpt>
      <trkpt lat="41.94361" lon="9.21731">
        <ele>1955</ele>
        <time>2009-06-04T06:36:17Z</time>
      </trkpt>
      <trkpt lat="41.94378" lon="9.21764">
        <ele>1946</ele>
        <time>2009-06-04T06:37:17Z</time>
      </trkpt>
      <trkpt lat="41.94414" lon="9.21774">
        <ele>1949</ele>
        <time>2009-06-04T06:38:17Z</time>
      </trkpt>
      <trkpt lat="41.94435" lon="9.21798">
        <ele>1953</ele>
        <time>2009-06-04T06:39:17Z</time>
      </trkpt>
      <trkpt lat="41.9446" lon="9.21817">
        <ele>1952</ele>
        <time>2009-06-04T06:40:17Z</time>
      </trkpt>
      <trkpt lat="41.9446" lon="9.21838">
        <ele>1957</ele>
        <time>2009-06-04T06:41:17Z</time>
      </trkpt>
      <trkpt lat="41.9446" lon="9.21886">
        <ele>1967</ele>
        <time>2009-06-04T06:42:17Z</time>
      </trkpt>
      <trkpt lat="41.94471" lon="9.219">
        <ele>1973</ele>
        <time>2009-06-04T06:43:17Z</time>
      </trkpt>
      <trkpt lat="41.9448" lon="9.21915">
        <ele>1976</ele>
        <time>2009-06-04T06:44:17Z</time>
      </trkpt>
      <trkpt lat="41.94488" lon="9.21926">
        <ele>1974</ele>
        <time>2009-06-04T06:45:17Z</time>
      </trkpt>
      <trkpt lat="41.94511" lon="9.21964">
        <ele>1971</ele>
        <time>2009-06-04T06:46:17Z</time>
      </trkpt>
      <trkpt lat="41.94548" lon="9.21996">
        <ele>1962</ele>
        <time>2009-06-04T06:47:17Z</time>
      </trkpt>
      <trkpt lat="41.94604" lon="9.22007">
        <ele>1949</ele>
        <time>2009-06-04T06:48:17Z</time>
      </trkpt>
      <trkpt lat="41.94657" lon="9.22062">
        <ele>1936</ele>
        <time>2009-06-04T06:49:17Z</time>
      </trkpt>
      <trkpt lat="41.947" lon="9.22128">
        <ele>1930</ele>
        <time>2009-06-04T06:50:17Z</time>
      </trkpt>
      <trkpt lat="41.94752" lon="9.22148">
        <ele>1929</ele>
        <time>2009-06-04T06:51:17Z</time>
      </trkpt>
      <trkpt lat="41.94793" lon="9.22191">
        <ele>1921</ele>
        <time>2009-06-04T06:52:17Z</time>
      </trkpt>
      <trkpt lat="41.94847" lon="9.22244">
        <ele>1914</ele>
        <time>2009-06-04T06:53:17Z</time>
      </trkpt>
      <trkpt lat="41.94891" lon="9.22237">
        <ele>1915</ele>
        <time>2009-06-04T06:54:17Z</time>
      </trkpt>
      <trkpt lat="41.94929" lon="9.22236">
        <ele>1920</ele>
        <time>2009-06-04T06:55:17Z</time>
      </trkpt>
      <trkpt lat="41.94989" lon="9.22246">
        <ele>1926</ele>
        <time>2009-06-04T06:56:17Z</time>
      </trkpt>
      <trkpt lat="41.95046" lon="9.22253">
        <ele>1926</ele>
        <time>2009-06-04T06:57:17Z</time>
      </trkpt>
      <trkpt lat="41.95099" lon="9.22267">
        <ele>1918</ele>
        <time>2009-06-04T06:58:17Z</time>
      </trkpt>
      <trkpt lat="41.95125" lon="9.2231">
        <ele>1908</ele>
        <time>2009-06-04T06:59:17Z</time>
      </trkpt>
      <trkpt lat="41.9515" lon="9.22301">
        <ele>1897</ele>
        <time>2009-06-04T07:00:17Z</time>
      </trkpt>
      <trkpt lat="41.95173" lon="9.22302">
        <ele>1884</ele>
        <time>2009-06-04T07:01:17Z</time>
      </trkpt>
      <trkpt lat="41.95191" lon="9.22297">
        <ele>1875</ele>
        <time>2009-06-04T07:02:17Z</time>
      </trkpt>
      <trkpt lat="41.95209" lon="9.22295">
        <ele>1860</ele>
        <time>2009-06-04T07:03:17Z</time>
      </trkpt>
      <trkpt lat="41.95239" lon="9.22314">
        <ele>1850</ele>
        <time>2009-06-04T07:04:17Z</time>
      </trkpt>
      <trkpt lat="41.95262" lon="9.22327">
        <ele>1840</ele>
        <time>2009-06-04T07:05:17Z</time>
      </trkpt>
      <trkpt lat="41.95264" lon="9.22345">
        <ele>1830</ele>
        <time>2009-06-04T07:06:17Z</time>
      </trkpt>
      <trkpt lat="41.95272" lon="9.22345">
        <ele>1827</ele>
        <time>2009-06-04T07:07:17Z</time>
      </trkpt>
      <trkpt lat="41.9531" lon="9.22352">
        <ele>1819</ele>
        <time>2009-06-04T07:08:17Z</time>
      </trkpt>
      <trkpt lat="41.95356" lon="9.22364">
        <ele>1808</ele>
        <time>2009-06-04T07:09:17Z</time>
      </trkpt>
      <trkpt lat="41.95385" lon="9.22397">
        <ele>1797</ele>
        <time>2009-06-04T07:10:17Z</time>
      </trkpt>
      <trkpt lat="41.95344" lon="9.22405">
        <ele>1786</ele>
        <time>2009-06-04T07:11:17Z</time>
      </trkpt>
      <trkpt lat="41.95374" lon="9.22426">
        <ele>1774</ele>
        <time>2009-06-04T07:12:17Z</time>
      </trkpt>
      <trkpt lat="41.95378" lon="9.22426">
        <ele>1766</ele>
        <time>2009-06-04T07:13:17Z</time>
      </trkpt>
      <trkpt lat="41.95374" lon="9.2242">
        <ele>1767</ele>
        <time>2009-06-04T07:14:17Z</time>
      </trkpt>
      <trkpt lat="41.95371" lon="9.22424">
        <ele>1766</ele>
        <time>2009-06-04T07:15:17Z</time>
      </trkpt>
      <trkpt lat="41.95374" lon="9.22424">
        <ele>1767</ele>
        <time>2009-06-04T07:16:17Z</time>
      </trkpt>
      <trkpt lat="41.95374" lon="9.22428">
        <ele>1767</ele>
        <time>2009-06-04T07:17:17Z</time>
      </trkpt>
      <trkpt lat="41.95353" lon="9.22432">
        <ele>1765</ele>
        <time>2009-06-04T07:18:17Z</time>
      </trkpt>
      <trkpt lat="41.95353" lon="9.22453">
        <ele>1755</ele>
        <time>2009-06-04T07:19:17Z</time>
      </trkpt>
      <trkpt lat="41.95345" lon="9.22478">
        <ele>1742</ele>
        <time>2009-06-04T07:20:17Z</time>
      </trkpt>
      <trkpt lat="41.95372" lon="9.22521">
        <ele>1728</ele>
        <time>2009-06-04T07:21:17Z</time>
      </trkpt>
      <trkpt lat="41.95386" lon="9.22528">
        <ele>1716</ele>
        <time>2009-06-04T07:22:17Z</time>
      </trkpt>
      <trkpt lat="41.95428" lon="9.22552">
        <ele>1701</ele>
        <time>2009-06-04T07:23:17Z</time>
      </trkpt>
      <trkpt lat="41.95434" lon="9.2258">
        <ele>1690</ele>
        <time>2009-06-04T07:24:17Z</time>
      </trkpt>
      <trkpt lat="41.95478" lon="9.22603">
        <ele>1679</ele>
        <time>2009-06-04T07:25:17Z</time>
      </trkpt>
      <trkpt lat="41.95523" lon="9.22589">
        <ele>1674</ele>
        <time>2009-06-04T07:26:17Z</time>
      </trkpt>
      <trkpt lat="41.95562" lon="9.22592">
        <ele>1673</ele>
        <time>2009-06-04T07:27:17Z</time>
      </trkpt>
      <trkpt lat="41.95595" lon="9.22625">
        <ele>1680</ele>
        <time>2009-06-04T07:28:17Z</time>
      </trkpt>
      <trkpt lat="41.95615" lon="9.22628">
        <ele>1679</ele>
        <time>2009-06-04T07:29:17Z</time>
      </trkpt>
      <trkpt lat="41.9563" lon="9.22633">
        <ele>1668</ele>
        <time>2009-06-04T07:30:17Z</time>
      </trkpt>
      <trkpt lat="41.95636" lon="9.22666">
        <ele>1655</ele>
        <time>2009-06-04T07:31:17Z</time>
      </trkpt>
      <trkpt lat="41.95651" lon="9.22647">
        <ele>1644</ele>
        <time>2009-06-04T07:32:17Z</time>
      </trkpt>
      <trkpt lat="41.95685" lon="9.22604">
        <ele>1636</ele>
        <time>2009-06-04T07:33:17Z</time>
      </trkpt>
      <trkpt lat="41.95745" lon="9.22595">
        <ele>1632</ele>
        <time>2009-06-04T07:34:17Z</time>
      </trkpt>
      <trkpt lat="41.95771" lon="9.22599">
        <ele>1621</ele>
        <time>2009-06-04T07:35:17Z</time>
      </trkpt>
      <trkpt lat="41.95819" lon="9.22605">
        <ele>1613</ele>
        <time>2009-06-04T07:36:17Z</time>
      </trkpt>
      <trkpt lat="41.95875" lon="9.22616">
        <ele>1617</ele>
        <time>2009-06-04T07:37:17Z</time>
      </trkpt>
      <trkpt lat="41.95932" lon="9.22624">
        <ele>1617</ele>
        <time>2009-06-04T07:38:17Z</time>
      </trkpt>
      <trkpt lat="41.95988" lon="9.22617">
        <ele>1622</ele>
        <time>2009-06-04T07:39:17Z</time>
      </trkpt>
      <trkpt lat="41.9598" lon="9.22654">
        <ele>1614</ele>
        <time>2009-06-04T07:40:17Z</time>
      </trkpt>
      <trkpt lat="41.96009" lon="9.22666">
        <ele>1600</ele>
        <time>2009-06-04T07:41:17Z</time>
      </trkpt>
      <trkpt lat="41.96055" lon="9.22626">
        <ele>1588</ele>
        <time>2009-06-04T07:42:17Z</time>
      </trkpt>
      <trkpt lat="41.9608" lon="9.22572">
        <ele>1576</ele>
        <time>2009-06-04T07:43:17Z</time>
      </trkpt>
      <trkpt lat="41.9611" lon="9.22525">
        <ele>1567</ele>
        <time>2009-06-04T07:44:17Z</time>
      </trkpt>
      <trkpt lat="41.96148" lon="9.22518">
        <ele>1556</ele>
        <time>2009-06-04T07:45:17Z</time>
      </trkpt>
      <trkpt lat="41.96195" lon="9.22506">
        <ele>1544</ele>
        <time>2009-06-04T07:46:17Z</time>
      </trkpt>
      <trkpt lat="41.96224" lon="9.22442">
        <ele>1531</ele>
        <time>2009-06-04T07:47:17Z</time>
      </trkpt>
      <trkpt lat="41.96283" lon="9.2242">
        <ele>1527</ele>
        <time>2009-06-04T07:48:17Z</time>
      </trkpt>
      <trkpt lat="41.96338" lon="9.22418">
        <ele>1521</ele>
        <time>2009-06-04T07:49:17Z</time>
      </trkpt>
      <trkpt lat="41.9638" lon="9.2242">
        <ele>1522</ele>
        <time>2009-06-04T07:50:17Z</time>
      </trkpt>
      <trkpt lat="41.96405" lon="9.22417">
        <ele>1528</ele>
        <time>2009-06-04T07:51:17Z</time>
      </trkpt>
      <trkpt lat="41.96432" lon="9.22407">
        <ele>1532</ele>
        <time>2009-06-04T07:52:17Z</time>
      </trkpt>
      <trkpt lat="41.96491" lon="9.22417">
        <ele>1523</ele>
        <time>2009-06-04T07:53:17Z</time>
      </trkpt>
      <trkpt lat="41.96484" lon="9.22436">
        <ele>1520</ele>
        <time>2009-06-04T07:54:17Z</time>
      </trkpt>
      <trkpt lat="41.96523" lon="9.22403">
        <ele>1523</ele>
        <time>2009-06-04T07:55:17Z</time>
      </trkpt>
      <trkpt lat="41.96562" lon="9.22368">
        <ele>1529</ele>
        <time>2009-06-04T07:56:17Z</time>
      </trkpt>
      <trkpt lat="41.96594" lon="9.22395">
        <ele>1536</ele>
        <time>2009-06-04T07:57:17Z</time>
      </trkpt>
      <trkpt lat="41.96631" lon="9.22396">
        <ele>1546</ele>
        <time>2009-06-04T07:58:17Z</time>
      </trkpt>
      <trkpt lat="41.96659" lon="9.22384">
        <ele>1555</ele>
        <time>2009-06-04T07:59:17Z</time>
      </trkpt>
      <trkpt lat="41.96705" lon="9.22394">
        <ele>1562</ele>
        <time>2009-06-04T08:00:17Z</time>
      </trkpt>
      <trkpt lat="41.9675" lon="9.22429">
        <ele>1567</ele>
        <time>2009-06-04T08:01:17Z</time>
      </trkpt>
      <trkpt lat="41.96801" lon="9.22444">
        <ele>1571</ele>
        <time>2009-06-04T08:02:17Z</time>
      </trkpt>
      <trkpt lat="41.96863" lon="9.22456">
        <ele>1570</ele>
        <time>2009-06-04T08:03:17Z</time>
      </trkpt>
      <trkpt lat="41.96915" lon="9.22459">
        <ele>1572</ele>
        <time>2009-06-04T08:04:17Z</time>
      </trkpt>
      <trkpt lat="41.96954" lon="9.22443">
        <ele>1577</ele>
        <time>2009-06-04T08:05:17Z</time>
      </trkpt>
      <trkpt lat="41.96972" lon="9.22453">
        <ele>1585</ele>
        <time>2009-06-04T08:06:17Z</time>
      </trkpt>
      <trkpt lat="41.97009" lon="9.22464">
        <ele>1593</ele>
        <time>2009-06-04T08:07:17Z</time>
      </trkpt>
      <trkpt lat="41.9705" lon="9.22466">
        <ele>1599</ele>
        <time>2009-06-04T08:08:17Z</time>
      </trkpt>
      <trkpt lat="41.97089" lon="9.22458">
        <ele>1605</ele>
        <time>2009-06-04T08:09:17Z</time>
      </trkpt>
      <trkpt lat="41.97128" lon="9.22456">
        <ele>1612</ele>
        <time>2009-06-04T08:10:17Z</time>
      </trkpt>
      <trkpt lat="41.97168" lon="9.22441">
        <ele>1617</ele>
        <time>2009-06-04T08:11:17Z</time>
      </trkpt>
      <trkpt lat="41.97214" lon="9.22411">
        <ele>1624</ele>
        <time>2009-06-04T08:12:17Z</time>
      </trkpt>
      <trkpt lat="41.97246" lon="9.22391">
        <ele>1632</ele>
        <time>2009-06-04T08:13:17Z</time>
      </trkpt>
      <trkpt lat="41.97281" lon="9.2236">
        <ele>1642</ele>
        <time>2009-06-04T08:14:17Z</time>
      </trkpt>
      <trkpt lat="41.97335" lon="9.22325">
        <ele>1652</ele>
        <time>2009-06-04T08:15:17Z</time>
      </trkpt>
      <trkpt lat="41.97376" lon="9.22305">
        <ele>1646</ele>
        <time>2009-06-04T08:16:17Z</time>
      </trkpt>
      <trkpt lat="41.97421" lon="9.22251">
        <ele>1637</ele>
        <time>2009-06-04T08:17:17Z</time>
      </trkpt>
      <trkpt lat="41.97469" lon="9.22227">
        <ele>1632</ele>
        <time>2009-06-04T08:18:17Z</time>
      </trkpt>
      <trkpt lat="41.97478" lon="9.22226">
        <ele>1626</ele>
        <time>2009-06-04T08:19:17Z</time>
      </trkpt>
      <trkpt lat="41.97495" lon="9.2222">
        <ele>1625</ele>
        <time>2009-06-04T08:20:17Z</time>
      </trkpt>
      <trkpt lat="41.9752" lon="9.22212">
        <ele>1624</ele>
        <time>2009-06-04T08:21:17Z</time>
      </trkpt>
      <trkpt lat="41.9758" lon="9.22183">
        <ele>1621</ele>
        <time>2009-06-04T08:22:17Z</time>
      </trkpt>
      <trkpt lat="41.97642" lon="9.22164">
        <ele>1621</ele>
        <time>2009-06-04T08:23:17Z</time>
      </trkpt>
      <trkpt lat="41.97712" lon="9.22118">
        <ele>1620</ele>
        <time>2009-06-04T08:24:17Z</time>
      </trkpt>
      <trkpt lat="41.97768" lon="9.22133">
        <ele>1624</ele>
        <time>2009-06-04T08:25:17Z</time>
      </trkpt>
      <trkpt lat="41.97802" lon="9.22161">
        <ele>1633</ele>
        <time>2009-06-04T08:26:17Z</time>
      </trkpt>
      <trkpt lat="41.97853" lon="9.22146">
        <ele>1637</ele>
        <time>2009-06-04T08:27:17Z</time>
      </trkpt>
      <trkpt lat="41.97916" lon="9.22117">
        <ele>1636</ele>
        <time>2009-06-04T08:28:17Z</time>
      </trkpt>
      <trkpt lat="41.97969" lon="9.22117">
        <ele>1635</ele>
        <time>2009-06-04T08:29:17Z</time>
      </trkpt>
      <trkpt lat="41.98012" lon="9.22124">
        <ele>1645</ele>
        <time>2009-06-04T08:30:17Z</time>
      </trkpt>
      <trkpt lat="41.98046" lon="9.22151">
        <ele>1658</ele>
        <time>2009-06-04T08:31:17Z</time>
      </trkpt>
      <trkpt lat="41.98067" lon="9.22151">
        <ele>1663</ele>
        <time>2009-06-04T08:32:17Z</time>
      </trkpt>
      <trkpt lat="41.98094" lon="9.2214">
        <ele>1667</ele>
        <time>2009-06-04T08:33:17Z</time>
      </trkpt>
      <trkpt lat="41.98112" lon="9.22119">
        <ele>1674</ele>
        <time>2009-06-04T08:34:17Z</time>
      </trkpt>
      <trkpt lat="41.9813" lon="9.22093">
        <ele>1681</ele>
        <time>2009-06-04T08:35:17Z</time>
      </trkpt>
      <trkpt lat="41.98146" lon="9.22069">
        <ele>1688</ele>
        <time>2009-06-04T08:36:17Z</time>
      </trkpt>
      <trkpt lat="41.98166" lon="9.22043">
        <ele>1697</ele>
        <time>2009-06-04T08:37:17Z</time>
      </trkpt>
      <trkpt lat="41.98193" lon="9.22038">
        <ele>1706</ele>
        <time>2009-06-04T08:38:17Z</time>
      </trkpt>
      <trkpt lat="41.98211" lon="9.22014">
        <ele>1707</ele>
        <time>2009-06-04T08:41:17Z</time>
      </trkpt>
      <trkpt lat="41.98249" lon="9.21969">
        <ele>1705</ele>
        <time>2009-06-04T08:42:17Z</time>
      </trkpt>
      <trkpt lat="41.98249" lon="9.21948">
        <ele>1705</ele>
        <time>2009-06-04T08:43:17Z</time>
      </trkpt>
      <trkpt lat="41.98263" lon="9.21932">
        <ele>1702</ele>
        <time>2009-06-04T08:44:17Z</time>
      </trkpt>
      <trkpt lat="41.98287" lon="9.21939">
        <ele>1701</ele>
        <time>2009-06-04T08:45:17Z</time>
      </trkpt>
      <trkpt lat="41.98341" lon="9.21955">
        <ele>1705</ele>
        <time>2009-06-04T08:46:17Z</time>
      </trkpt>
      <trkpt lat="41.98368" lon="9.21936">
        <ele>1709</ele>
        <time>2009-06-04T08:47:17Z</time>
      </trkpt>
      <trkpt lat="41.9839" lon="9.21921">
        <ele>1702</ele>
        <time>2009-06-04T08:48:17Z</time>
      </trkpt>
      <trkpt lat="41.98428" lon="9.21925">
        <ele>1700</ele>
        <time>2009-06-04T08:49:17Z</time>
      </trkpt>
      <trkpt lat="41.98461" lon="9.21916">
        <ele>1705</ele>
        <time>2009-06-04T08:50:17Z</time>
      </trkpt>
      <trkpt lat="41.98477" lon="9.21918">
        <ele>1703</ele>
        <time>2009-06-04T08:51:17Z</time>
      </trkpt>
      <trkpt lat="41.98498" lon="9.21903">
        <ele>1700</ele>
        <time>2009-06-04T08:52:17Z</time>
      </trkpt>
      <trkpt lat="41.98512" lon="9.21906">
        <ele>1703</ele>
        <time>2009-06-04T08:53:17Z</time>
      </trkpt>
      <trkpt lat="41.98515" lon="9.21918">
        <ele>1704</ele>
        <time>2009-06-04T08:54:17Z</time>
      </trkpt>
      <trkpt lat="41.98519" lon="9.21935">
        <ele>1711</ele>
        <time>2009-06-04T08:55:17Z</time>
      </trkpt>
      <trkpt lat="41.98531" lon="9.21948">
        <ele>1722</ele>
        <time>2009-06-04T08:56:17Z</time>
      </trkpt>
      <trkpt lat="41.98545" lon="9.21946">
        <ele>1732</ele>
        <time>2009-06-04T08:57:17Z</time>
      </trkpt>
      <trkpt lat="41.98558" lon="9.21922">
        <ele>1740</ele>
        <time>2009-06-04T08:58:17Z</time>
      </trkpt>
      <trkpt lat="41.98569" lon="9.21908">
        <ele>1749</ele>
        <time>2009-06-04T08:59:17Z</time>
      </trkpt>
      <trkpt lat="41.9859" lon="9.21889">
        <ele>1756</ele>
        <time>2009-06-04T09:00:17Z</time>
      </trkpt>
      <trkpt lat="41.98618" lon="9.21896">
        <ele>1763</ele>
        <time>2009-06-04T09:01:17Z</time>
      </trkpt>
      <trkpt lat="41.98641" lon="9.21885">
        <ele>1765</ele>
        <time>2009-06-04T09:02:17Z</time>
      </trkpt>
      <trkpt lat="41.98661" lon="9.21901">
        <ele>1766</ele>
        <time>2009-06-04T09:03:17Z</time>
      </trkpt>
      <trkpt lat="41.98677" lon="9.21916">
        <ele>1775</ele>
        <time>2009-06-04T09:04:17Z</time>
      </trkpt>
      <trkpt lat="41.98705" lon="9.21932">
        <ele>1784</ele>
        <time>2009-06-04T09:05:17Z</time>
      </trkpt>
      <trkpt lat="41.98748" lon="9.21946">
        <ele>1793</ele>
        <time>2009-06-04T09:06:17Z</time>
      </trkpt>
      <trkpt lat="41.98793" lon="9.21992">
        <ele>1803</ele>
        <time>2009-06-04T09:07:17Z</time>
      </trkpt>
      <trkpt lat="41.98833" lon="9.21985">
        <ele>1810</ele>
        <time>2009-06-04T09:08:17Z</time>
      </trkpt>
      <trkpt lat="41.9886" lon="9.21967">
        <ele>1818</ele>
        <time>2009-06-04T09:09:17Z</time>
      </trkpt>
      <trkpt lat="41.98885" lon="9.21952">
        <ele>1823</ele>
        <time>2009-06-04T09:10:17Z</time>
      </trkpt>
      <trkpt lat="41.98912" lon="9.21944">
        <ele>1829</ele>
        <time>2009-06-04T09:11:17Z</time>
      </trkpt>
      <trkpt lat="41.98944" lon="9.2193">
        <ele>1835</ele>
        <time>2009-06-04T09:12:17Z</time>
      </trkpt>
      <trkpt lat="41.98961" lon="9.21909">
        <ele>1843</ele>
        <time>2009-06-04T09:13:17Z</time>
      </trkpt>
      <trkpt lat="41.98976" lon="9.219">
        <ele>1849</ele>
        <time>2009-06-04T09:14:17Z</time>
      </trkpt>
      <trkpt lat="41.98984" lon="9.21877">
        <ele>1857</ele>
        <time>2009-06-04T09:15:17Z</time>
      </trkpt>
      <trkpt lat="41.98991" lon="9.21874">
        <ele>1865</ele>
        <time>2009-06-04T09:16:17Z</time>
      </trkpt>
      <trkpt lat="41.99013" lon="9.21854">
        <ele>1875</ele>
        <time>2009-06-04T09:17:17Z</time>
      </trkpt>
      <trkpt lat="41.99042" lon="9.2183">
        <ele>1880</ele>
        <time>2009-06-04T09:18:17Z</time>
      </trkpt>
      <trkpt lat="41.9908" lon="9.21847">
        <ele>1884</ele>
        <time>2009-06-04T09:19:17Z</time>
      </trkpt>
      <trkpt lat="41.99136" lon="9.21852">
        <ele>1896</ele>
        <time>2009-06-04T09:20:17Z</time>
      </trkpt>
      <trkpt lat="41.99178" lon="9.21833">
        <ele>1897</ele>
        <time>2009-06-04T09:21:17Z</time>
      </trkpt>
      <trkpt lat="41.99214" lon="9.21779">
        <ele>1896</ele>
        <time>2009-06-04T09:22:17Z</time>
      </trkpt>
      <trkpt lat="41.99267" lon="9.2176">
        <ele>1902</ele>
        <time>2009-06-04T09:23:17Z</time>
      </trkpt>
      <trkpt lat="41.99315" lon="9.21725">
        <ele>1906</ele>
        <time>2009-06-04T09:24:17Z</time>
      </trkpt>
      <trkpt lat="41.99378" lon="9.21736">
        <ele>1908</ele>
        <time>2009-06-04T09:25:17Z</time>
      </trkpt>
      <trkpt lat="41.99405" lon="9.21754">
        <ele>1910</ele>
        <time>2009-06-04T09:26:17Z</time>
      </trkpt>
      <trkpt lat="41.9944" lon="9.21761">
        <ele>1911</ele>
        <time>2009-06-04T09:27:17Z</time>
      </trkpt>
      <trkpt lat="41.99467" lon="9.21771">
        <ele>1913</ele>
        <time>2009-06-04T09:28:17Z</time>
      </trkpt>
      <trkpt lat="41.99493" lon="9.21788">
        <ele>1920</ele>
        <time>2009-06-04T09:29:17Z</time>
      </trkpt>
      <trkpt lat="41.99512" lon="9.2181">
        <ele>1929</ele>
        <time>2009-06-04T09:30:17Z</time>
      </trkpt>
      <trkpt lat="41.99523" lon="9.21786">
        <ele>1936</ele>
        <time>2009-06-04T09:31:17Z</time>
      </trkpt>
      <trkpt lat="41.99533" lon="9.21792">
        <ele>1943</ele>
        <time>2009-06-04T09:32:17Z</time>
      </trkpt>
      <trkpt lat="41.99543" lon="9.21773">
        <ele>1952</ele>
        <time>2009-06-04T09:33:17Z</time>
      </trkpt>
      <trkpt lat="41.99571" lon="9.21789">
        <ele>1957</ele>
        <time>2009-06-04T09:34:17Z</time>
      </trkpt>
      <trkpt lat="41.99602" lon="9.21808">
        <ele>1965</ele>
        <time>2009-06-04T09:35:17Z</time>
      </trkpt>
      <trkpt lat="41.99653" lon="9.21798">
        <ele>1973</ele>
        <time>2009-06-04T09:36:17Z</time>
      </trkpt>
      <trkpt lat="41.9965" lon="9.21755">
        <ele>1981</ele>
        <time>2009-06-04T09:37:17Z</time>
      </trkpt>
      <trkpt lat="41.99666" lon="9.21722">
        <ele>1986</ele>
        <time>2009-06-04T09:38:17Z</time>
      </trkpt>
      <trkpt lat="41.9969" lon="9.21681">
        <ele>1989</ele>
        <time>2009-06-04T09:39:17Z</time>
      </trkpt>
      <trkpt lat="41.99719" lon="9.21655">
        <ele>1998</ele>
        <time>2009-06-04T09:40:17Z</time>
      </trkpt>
      <trkpt lat="41.99758" lon="9.21627">
        <ele>1998</ele>
        <time>2009-06-04T09:41:17Z</time>
      </trkpt>
      <trkpt lat="41.99758" lon="9.2164">
        <ele>1990</ele>
        <time>2009-06-04T09:42:17Z</time>
      </trkpt>
      <trkpt lat="41.99766" lon="9.21643">
        <ele>1975</ele>
        <time>2009-06-04T09:43:17Z</time>
      </trkpt>
      <trkpt lat="41.99768" lon="9.21638">
        <ele>1968</ele>
        <time>2009-06-04T09:44:17Z</time>
      </trkpt>
      <trkpt lat="41.99781" lon="9.21646">
        <ele>1964</ele>
        <time>2009-06-04T09:45:17Z</time>
      </trkpt>
      <trkpt lat="41.99802" lon="9.21627">
        <ele>1960</ele>
        <time>2009-06-04T09:46:17Z</time>
      </trkpt>
      <trkpt lat="41.99829" lon="9.21604">
        <ele>1955</ele>
        <time>2009-06-04T09:47:17Z</time>
      </trkpt>
      <trkpt lat="41.9985" lon="9.21594">
        <ele>1949</ele>
        <time>2009-06-04T09:48:17Z</time>
      </trkpt>
      <trkpt lat="41.99878" lon="9.21593">
        <ele>1948</ele>
        <time>2009-06-04T09:49:17Z</time>
      </trkpt>
      <trkpt lat="41.99915" lon="9.21595">
        <ele>1957</ele>
        <time>2009-06-04T09:50:17Z</time>
      </trkpt>
      <trkpt lat="41.99943" lon="9.21589">
        <ele>1957</ele>
        <time>2009-06-04T09:51:17Z</time>
      </trkpt>
      <trkpt lat="41.99954" lon="9.21579">
        <ele>1957</ele>
        <time>2009-06-04T09:52:17Z</time>
      </trkpt>
      <trkpt lat="41.99963" lon="9.21578">
        <ele>1957</ele>
        <time>2009-06-04T09:53:17Z</time>
      </trkpt>
      <trkpt lat="42" lon="9.21593">
        <ele>1963</ele>
        <time>2009-06-04T09:54:17Z</time>
      </trkpt>
      <trkpt lat="42.00026" lon="9.21614">
        <ele>1971</ele>
        <time>2009-06-04T09:55:17Z</time>
      </trkpt>
      <trkpt lat="42.0006" lon="9.21619">
        <ele>1980</ele>
        <time>2009-06-04T09:56:17Z</time>
      </trkpt>
      <trkpt lat="42.00079" lon="9.21616">
        <ele>1979</ele>
        <time>2009-06-04T09:57:17Z</time>
      </trkpt>
      <trkpt lat="42.00104" lon="9.21604">
        <ele>1984</ele>
        <time>2009-06-04T09:58:17Z</time>
      </trkpt>
      <trkpt lat="42.00139" lon="9.21602">
        <ele>1979</ele>
        <time>2009-06-04T09:59:17Z</time>
      </trkpt>
      <trkpt lat="42.00198" lon="9.21596">
        <ele>1965</ele>
        <time>2009-06-04T10:00:17Z</time>
      </trkpt>
      <trkpt lat="42.00225" lon="9.21519">
        <ele>1952</ele>
        <time>2009-06-04T10:01:17Z</time>
      </trkpt>
      <trkpt lat="42.0027" lon="9.21494">
        <ele>1942</ele>
        <time>2009-06-04T10:02:17Z</time>
      </trkpt>
      <trkpt lat="42.0031" lon="9.21443">
        <ele>1927</ele>
        <time>2009-06-04T10:03:17Z</time>
      </trkpt>
      <trkpt lat="42.00359" lon="9.2142">
        <ele>1923</ele>
        <time>2009-06-04T10:04:17Z</time>
      </trkpt>
      <trkpt lat="42.00396" lon="9.21434">
        <ele>1906</ele>
        <time>2009-06-04T10:05:17Z</time>
      </trkpt>
      <trkpt lat="42.0047" lon="9.21403">
        <ele>1892</ele>
        <time>2009-06-04T10:06:17Z</time>
      </trkpt>
      <trkpt lat="42.00549" lon="9.21397">
        <ele>1871</ele>
        <time>2009-06-04T10:07:17Z</time>
      </trkpt>
      <trkpt lat="42.00616" lon="9.21458">
        <ele>1857</ele>
        <time>2009-06-04T10:08:17Z</time>
      </trkpt>
      <trkpt lat="42.00674" lon="9.21491">
        <ele>1851</ele>
        <time>2009-06-04T10:09:17Z</time>
      </trkpt>
      <trkpt lat="42.00716" lon="9.2157">
        <ele>1844</ele>
        <time>2009-06-04T10:10:17Z</time>
      </trkpt>
      <trkpt lat="42.00759" lon="9.21651">
        <ele>1836</ele>
        <time>2009-06-04T10:11:17Z</time>
      </trkpt>
      <trkpt lat="42.00809" lon="9.21739">
        <ele>1827</ele>
        <time>2009-06-04T10:12:17Z</time>
      </trkpt>
      <trkpt lat="42.00852" lon="9.21806">
        <ele>1820</ele>
        <time>2009-06-04T10:13:17Z</time>
      </trkpt>
      <trkpt lat="42.00858" lon="9.21831">
        <ele>1817</ele>
        <time>2009-06-04T10:14:17Z</time>
      </trkpt>
      <trkpt lat="42.00882" lon="9.21844">
        <ele>1818</ele>
        <time>2009-06-04T10:15:17Z</time>
      </trkpt>
      <trkpt lat="42.00928" lon="9.21818">
        <ele>1818</ele>
        <time>2009-06-04T10:16:17Z</time>
      </trkpt>
      <trkpt lat="42.00971" lon="9.21827">
        <ele>1818</ele>
        <time>2009-06-04T10:17:17Z</time>
      </trkpt>
      <trkpt lat="42.01011" lon="9.21842">
        <ele>1826</ele>
        <time>2009-06-04T10:18:17Z</time>
      </trkpt>
      <trkpt lat="42.01037" lon="9.21858">
        <ele>1830</ele>
        <time>2009-06-04T10:19:17Z</time>
      </trkpt>
      <trkpt lat="42.01082" lon="9.21867">
        <ele>1837</ele>
        <time>2009-06-04T10:20:17Z</time>
      </trkpt>
      <trkpt lat="42.01121" lon="9.21854">
        <ele>1846</ele>
        <time>2009-06-04T10:21:17Z</time>
      </trkpt>
      <trkpt lat="42.01194" lon="9.21873">
        <ele>1854</ele>
        <time>2009-06-04T10:22:17Z</time>
      </trkpt>
      <trkpt lat="42.01266" lon="9.21899">
        <ele>1863</ele>
        <time>2009-06-04T10:23:17Z</time>
      </trkpt>
      <trkpt lat="42.01331" lon="9.21906">
        <ele>1864</ele>
        <time>2009-06-04T10:24:17Z</time>
      </trkpt>
      <trkpt lat="42.01402" lon="9.21933">
        <ele>1865</ele>
        <time>2009-06-04T10:25:17Z</time>
      </trkpt>
      <trkpt lat="42.01475" lon="9.21964">
        <ele>1857</ele>
        <time>2009-06-04T10:26:17Z</time>
      </trkpt>
      <trkpt lat="42.01545" lon="9.21996">
        <ele>1851</ele>
        <time>2009-06-04T10:27:17Z</time>
      </trkpt>
      <trkpt lat="42.01607" lon="9.22015">
        <ele>1850</ele>
        <time>2009-06-04T10:28:17Z</time>
      </trkpt>
      <trkpt lat="42.01677" lon="9.22052">
        <ele>1851</ele>
        <time>2009-06-04T10:29:17Z</time>
      </trkpt>
      <trkpt lat="42.01753" lon="9.22057">
        <ele>1853</ele>
        <time>2009-06-04T10:30:17Z</time>
      </trkpt>
      <trkpt lat="42.01814" lon="9.22022">
        <ele>1851</ele>
        <time>2009-06-04T10:31:17Z</time>
      </trkpt>
      <trkpt lat="42.0185" lon="9.21966">
        <ele>1853</ele>
        <time>2009-06-04T10:32:17Z</time>
      </trkpt>
      <trkpt lat="42.01883" lon="9.21904">
        <ele>1850</ele>
        <time>2009-06-04T10:33:17Z</time>
      </trkpt>
      <trkpt lat="42.01855" lon="9.21873">
        <ele>1835</ele>
        <time>2009-06-04T10:34:17Z</time>
      </trkpt>
      <trkpt lat="42.01854" lon="9.21828">
        <ele>1820</ele>
        <time>2009-06-04T10:35:17Z</time>
      </trkpt>
      <trkpt lat="42.01868" lon="9.21776">
        <ele>1806</ele>
        <time>2009-06-04T10:36:17Z</time>
      </trkpt>
      <trkpt lat="42.01856" lon="9.21746">
        <ele>1787</ele>
        <time>2009-06-04T10:37:17Z</time>
      </trkpt>
      <trkpt lat="42.01846" lon="9.21713">
        <ele>1772</ele>
        <time>2009-06-04T10:38:17Z</time>
      </trkpt>
      <trkpt lat="42.0186" lon="9.21662">
        <ele>1754</ele>
        <time>2009-06-04T10:39:17Z</time>
      </trkpt>
      <trkpt lat="42.01877" lon="9.21601">
        <ele>1741</ele>
        <time>2009-06-04T10:40:17Z</time>
      </trkpt>
      <trkpt lat="42.01908" lon="9.21526">
        <ele>1726</ele>
        <time>2009-06-04T10:41:17Z</time>
      </trkpt>
      <trkpt lat="42.01931" lon="9.21461">
        <ele>1715</ele>
        <time>2009-06-04T10:42:17Z</time>
      </trkpt>
      <trkpt lat="42.01949" lon="9.21407">
        <ele>1695</ele>
        <time>2009-06-04T10:43:17Z</time>
      </trkpt>
      <trkpt lat="42.01956" lon="9.21352">
        <ele>1684</ele>
        <time>2009-06-04T10:44:17Z</time>
      </trkpt>
      <trkpt lat="42.01975" lon="9.21284">
        <ele>1669</ele>
        <time>2009-06-04T10:45:17Z</time>
      </trkpt>
      <trkpt lat="42.02002" lon="9.21221">
        <ele>1657</ele>
        <time>2009-06-04T10:46:17Z</time>
      </trkpt>
      <trkpt lat="42.02022" lon="9.21172">
        <ele>1648</ele>
        <time>2009-06-04T10:47:17Z</time>
      </trkpt>
      <trkpt lat="42.02042" lon="9.21105">
        <ele>1649</ele>
        <time>2009-06-04T10:48:17Z</time>
      </trkpt>
      <trkpt lat="42.02084" lon="9.21043">
        <ele>1642</ele>
        <time>2009-06-04T10:49:17Z</time>
      </trkpt>
      <trkpt lat="42.02109" lon="9.21009">
        <ele>1633</ele>
        <time>2009-06-04T10:50:17Z</time>
      </trkpt>
      <trkpt lat="42.0213" lon="9.20957">
        <ele>1622</ele>
        <time>2009-06-04T10:51:17Z</time>
      </trkpt>
      <trkpt lat="42.02158" lon="9.20948">
        <ele>1609</ele>
        <time>2009-06-04T10:52:17Z</time>
      </trkpt>
      <trkpt lat="42.02192" lon="9.20909">
        <ele>1596</ele>
        <time>2009-06-04T10:53:17Z</time>
      </trkpt>
      <trkpt lat="42.02221" lon="9.20938">
        <ele>1580</ele>
        <time>2009-06-04T10:54:17Z</time>
      </trkpt>
      <trkpt lat="42.02261" lon="9.20974">
        <ele>1566</ele>
        <time>2009-06-04T10:55:17Z</time>
      </trkpt>
      <trkpt lat="42.02291" lon="9.21">
        <ele>1550</ele>
        <time>2009-06-04T10:56:17Z</time>
      </trkpt>
      <trkpt lat="42.02331" lon="9.21029">
        <ele>1536</ele>
        <time>2009-06-04T10:57:17Z</time>
      </trkpt>
      <trkpt lat="42.02378" lon="9.20992">
        <ele>1521</ele>
        <time>2009-06-04T10:58:17Z</time>
      </trkpt>
      <trkpt lat="42.02432" lon="9.20997">
        <ele>1512</ele>
        <time>2009-06-04T10:59:17Z</time>
      </trkpt>
      <trkpt lat="42.02457" lon="9.21007">
        <ele>1509</ele>
        <time>2009-06-04T11:00:17Z</time>
      </trkpt>
      <trkpt lat="42.02504" lon="9.20954">
        <ele>1509</ele>
        <time>2009-06-04T11:01:17Z</time>
      </trkpt>
      <trkpt lat="42.02556" lon="9.20909">
        <ele>1502</ele>
        <time>2009-06-04T11:02:17Z</time>
      </trkpt>
      <trkpt lat="42.02591" lon="9.20871">
        <ele>1498</ele>
        <time>2009-06-04T11:03:17Z</time>
      </trkpt>
      <trkpt lat="42.02594" lon="9.20873">
        <ele>1491</ele>
        <time>2009-06-04T11:04:17Z</time>
      </trkpt>
      <trkpt lat="42.02598" lon="9.2084">
        <ele>1486</ele>
        <time>2009-06-04T11:05:17Z</time>
      </trkpt>
      <trkpt lat="42.02635" lon="9.20785">
        <ele>1484</ele>
        <time>2009-06-04T11:06:17Z</time>
      </trkpt>
      <trkpt lat="42.0266" lon="9.20718">
        <ele>1485</ele>
        <time>2009-06-04T11:07:17Z</time>
      </trkpt>
      <trkpt lat="42.02693" lon="9.20684">
        <ele>1484</ele>
        <time>2009-06-04T11:08:17Z</time>
      </trkpt>
      <trkpt lat="42.02728" lon="9.20627">
        <ele>1481</ele>
        <time>2009-06-04T11:09:17Z</time>
      </trkpt>
      <trkpt lat="42.02694" lon="9.20584">
        <ele>1486</ele>
        <time>2009-06-04T11:10:17Z</time>
      </trkpt>
      <trkpt lat="42.02655" lon="9.20574">
        <ele>1485</ele>
        <time>2009-06-04T11:11:17Z</time>
      </trkpt>
      <trkpt lat="42.02635" lon="9.20518">
        <ele>1487</ele>
        <time>2009-06-04T11:12:17Z</time>
      </trkpt>
      <trkpt lat="42.02618" lon="9.20443">
        <ele>1493</ele>
        <time>2009-06-04T11:13:17Z</time>
      </trkpt>
      <trkpt lat="42.02636" lon="9.20376">
        <ele>1502</ele>
        <time>2009-06-04T11:14:17Z</time>
      </trkpt>
      <trkpt lat="42.02651" lon="9.20303">
        <ele>1501</ele>
        <time>2009-06-04T11:15:17Z</time>
      </trkpt>
      <trkpt lat="42.02665" lon="9.20245">
        <ele>1493</ele>
        <time>2009-06-04T11:16:17Z</time>
      </trkpt>
      <trkpt lat="42.02693" lon="9.20199">
        <ele>1485</ele>
        <time>2009-06-04T11:17:17Z</time>
      </trkpt>
      <trkpt lat="42.02688" lon="9.20134">
        <ele>1473</ele>
        <time>2009-06-04T11:18:17Z</time>
      </trkpt>
      <trkpt lat="42.02644" lon="9.20075">
        <ele>1460</ele>
        <time>2009-06-04T11:19:17Z</time>
      </trkpt>
      <trkpt lat="42.02606" lon="9.20017">
        <ele>1452</ele>
        <time>2009-06-04T11:20:17Z</time>
      </trkpt>
      <trkpt lat="42.0256" lon="9.19986">
        <ele>1445</ele>
        <time>2009-06-04T11:21:17Z</time>
      </trkpt>
      <trkpt lat="42.02519" lon="9.1994">
        <ele>1436</ele>
        <time>2009-06-04T11:22:17Z</time>
      </trkpt>
      <trkpt lat="42.02479" lon="9.19929">
        <ele>1424</ele>
        <time>2009-06-04T11:23:17Z</time>
      </trkpt>
      <trkpt lat="42.02425" lon="9.19905">
        <ele>1408</ele>
        <time>2009-06-04T11:24:17Z</time>
      </trkpt>
      <trkpt lat="42.0242" lon="9.1985">
        <ele>1394</ele>
        <time>2009-06-04T11:25:17Z</time>
      </trkpt>
      <trkpt lat="42.02441" lon="9.19778">
        <ele>1381</ele>
        <time>2009-06-04T11:26:17Z</time>
      </trkpt>
      <trkpt lat="42.025" lon="9.19753">
        <ele>1367</ele>
        <time>2009-06-04T11:27:17Z</time>
      </trkpt>
      <trkpt lat="42.02575" lon="9.19716">
        <ele>1354</ele>
        <time>2009-06-04T11:28:17Z</time>
      </trkpt>
      <trkpt lat="42.02627" lon="9.19676">
        <ele>1343</ele>
        <time>2009-06-04T11:29:17Z</time>
      </trkpt>
      <trkpt lat="42.02679" lon="9.19606">
        <ele>1338</ele>
        <time>2009-06-04T11:30:17Z</time>
      </trkpt>
      <trkpt lat="42.02739" lon="9.19565">
        <ele>1335</ele>
        <time>2009-06-04T11:31:17Z</time>
      </trkpt>
      <trkpt lat="42.02788" lon="9.19512">
        <ele>1329</ele>
        <time>2009-06-04T11:32:17Z</time>
      </trkpt>
      <trkpt lat="42.02832" lon="9.19476">
        <ele>1321</ele>
        <time>2009-06-04T11:33:17Z</time>
      </trkpt>
      <trkpt lat="42.02815" lon="9.19465">
        <ele>1313</ele>
        <time>2009-06-04T11:34:17Z</time>
      </trkpt>
      <trkpt lat="42.02865" lon="9.19297">
        <ele>1301</ele>
        <time>2009-06-04T12:50:35Z</time>
      </trkpt>
      <trkpt lat="42.02897" lon="9.19214">
        <ele>1296</ele>
        <time>2009-06-04T12:51:35Z</time>
      </trkpt>
      <trkpt lat="42.02914" lon="9.19121">
        <ele>1291</ele>
        <time>2009-06-04T12:52:35Z</time>
      </trkpt>
      <trkpt lat="42.02886" lon="9.19043">
        <ele>1286</ele>
        <time>2009-06-04T12:53:35Z</time>
      </trkpt>
      <trkpt lat="42.02866" lon="9.18953">
        <ele>1285</ele>
        <time>2009-06-04T12:54:35Z</time>
      </trkpt>
      <trkpt lat="42.02848" lon="9.18876">
        <ele>1284</ele>
        <time>2009-06-04T12:55:35Z</time>
      </trkpt>
      <trkpt lat="42.02826" lon="9.18792">
        <ele>1288</ele>
        <time>2009-06-04T12:56:35Z</time>
      </trkpt>
      <trkpt lat="42.02805" lon="9.1873">
        <ele>1293</ele>
        <time>2009-06-04T12:57:35Z</time>
      </trkpt>
      <trkpt lat="42.02777" lon="9.18671">
        <ele>1299</ele>
        <time>2009-06-04T12:58:35Z</time>
      </trkpt>
      <trkpt lat="42.02761" lon="9.18622">
        <ele>1303</ele>
        <time>2009-06-04T12:59:35Z</time>
      </trkpt>
      <trkpt lat="42.02747" lon="9.18565">
        <ele>1309</ele>
        <time>2009-06-04T13:00:35Z</time>
      </trkpt>
      <trkpt lat="42.02732" lon="9.18501">
        <ele>1316</ele>
        <time>2009-06-04T13:01:35Z</time>
      </trkpt>
      <trkpt lat="42.0271" lon="9.18439">
        <ele>1321</ele>
        <time>2009-06-04T13:02:35Z</time>
      </trkpt>
      <trkpt lat="42.02705" lon="9.18368">
        <ele>1327</ele>
        <time>2009-06-04T13:03:35Z</time>
      </trkpt>
      <trkpt lat="42.02712" lon="9.18309">
        <ele>1332</ele>
        <time>2009-06-04T13:04:35Z</time>
      </trkpt>
      <trkpt lat="42.02719" lon="9.18251">
        <ele>1340</ele>
        <time>2009-06-04T13:05:35Z</time>
      </trkpt>
      <trkpt lat="42.02736" lon="9.18202">
        <ele>1347</ele>
        <time>2009-06-04T13:06:35Z</time>
      </trkpt>
      <trkpt lat="42.02745" lon="9.18136">
        <ele>1355</ele>
        <time>2009-06-04T13:07:35Z</time>
      </trkpt>
      <trkpt lat="42.0273" lon="9.18064">
        <ele>1361</ele>
        <time>2009-06-04T13:08:35Z</time>
      </trkpt>
      <trkpt lat="42.02738" lon="9.18033">
        <ele>1365</ele>
        <time>2009-06-04T13:09:35Z</time>
      </trkpt>
      <trkpt lat="42.02751" lon="9.17974">
        <ele>1371</ele>
        <time>2009-06-04T13:10:35Z</time>
      </trkpt>
      <trkpt lat="42.02735" lon="9.17915">
        <ele>1378</ele>
        <time>2009-06-04T13:11:35Z</time>
      </trkpt>
      <trkpt lat="42.02732" lon="9.17815">
        <ele>1384</ele>
        <time>2009-06-04T13:12:35Z</time>
      </trkpt>
      <trkpt lat="42.02723" lon="9.17765">
        <ele>1384</ele>
        <time>2009-06-04T13:13:35Z</time>
      </trkpt>
      <trkpt lat="42.02731" lon="9.17696">
        <ele>1390</ele>
        <time>2009-06-04T13:14:35Z</time>
      </trkpt>
      <trkpt lat="42.02746" lon="9.1763">
        <ele>1394</ele>
        <time>2009-06-04T13:15:35Z</time>
      </trkpt>
      <trkpt lat="42.02739" lon="9.17587">
        <ele>1397</ele>
        <time>2009-06-04T13:16:35Z</time>
      </trkpt>
      <trkpt lat="42.0275" lon="9.17519">
        <ele>1401</ele>
        <time>2009-06-04T13:17:35Z</time>
      </trkpt>
      <trkpt lat="42.02765" lon="9.17474">
        <ele>1407</ele>
        <time>2009-06-04T13:18:35Z</time>
      </trkpt>
      <trkpt lat="42.02773" lon="9.1741">
        <ele>1414</ele>
        <time>2009-06-04T13:19:35Z</time>
      </trkpt>
      <trkpt lat="42.02756" lon="9.17353">
        <ele>1420</ele>
        <time>2009-06-04T13:20:35Z</time>
      </trkpt>
      <trkpt lat="42.02741" lon="9.17283">
        <ele>1425</ele>
        <time>2009-06-04T13:21:35Z</time>
      </trkpt>
      <trkpt lat="42.02733" lon="9.17214">
        <ele>1430</ele>
        <time>2009-06-04T13:22:35Z</time>
      </trkpt>
      <trkpt lat="42.02708" lon="9.17154">
        <ele>1435</ele>
        <time>2009-06-04T13:23:35Z</time>
      </trkpt>
      <trkpt lat="42.02724" lon="9.17079">
        <ele>1440</ele>
        <time>2009-06-04T13:24:35Z</time>
      </trkpt>
      <trkpt lat="42.02721" lon="9.16995">
        <ele>1444</ele>
        <time>2009-06-04T13:25:35Z</time>
      </trkpt>
      <trkpt lat="42.02721" lon="9.16905">
        <ele>1443</ele>
        <time>2009-06-04T13:26:35Z</time>
      </trkpt>
      <trkpt lat="42.02706" lon="9.16835">
        <ele>1440</ele>
        <time>2009-06-04T13:27:35Z</time>
      </trkpt>
      <trkpt lat="42.02725" lon="9.1676">
        <ele>1438</ele>
        <time>2009-06-04T13:28:35Z</time>
      </trkpt>
      <trkpt lat="42.02732" lon="9.16677">
        <ele>1434</ele>
        <time>2009-06-04T13:29:35Z</time>
      </trkpt>
      <trkpt lat="42.02731" lon="9.16606">
        <ele>1428</ele>
        <time>2009-06-04T13:30:35Z</time>
      </trkpt>
      <trkpt lat="42.02729" lon="9.1653">
        <ele>1419</ele>
        <time>2009-06-04T13:31:35Z</time>
      </trkpt>
      <trkpt lat="42.0272" lon="9.16449">
        <ele>1416</ele>
        <time>2009-06-04T13:32:35Z</time>
      </trkpt>
      <trkpt lat="42.02728" lon="9.16383">
        <ele>1412</ele>
        <time>2009-06-04T13:33:35Z</time>
      </trkpt>
      <trkpt lat="42.02753" lon="9.16334">
        <ele>1403</ele>
        <time>2009-06-04T13:34:35Z</time>
      </trkpt>
      <trkpt lat="42.02757" lon="9.16235">
        <ele>1400</ele>
        <time>2009-06-04T13:35:35Z</time>
      </trkpt>
      <trkpt lat="42.02735" lon="9.16181">
        <ele>1398</ele>
        <time>2009-06-04T13:36:35Z</time>
      </trkpt>
      <trkpt lat="42.02718" lon="9.16132">
        <ele>1401</ele>
        <time>2009-06-04T13:37:35Z</time>
      </trkpt>
      <trkpt lat="42.02685" lon="9.16085">
        <ele>1406</ele>
        <time>2009-06-04T13:38:35Z</time>
      </trkpt>
      <trkpt lat="42.02687" lon="9.16055">
        <ele>1408</ele>
        <time>2009-06-04T13:39:35Z</time>
      </trkpt>
      <trkpt lat="42.02673" lon="9.1602">
        <ele>1408</ele>
        <time>2009-06-04T13:40:35Z</time>
      </trkpt>
      <trkpt lat="42.02685" lon="9.16018">
        <ele>1415</ele>
        <time>2009-06-04T13:41:35Z</time>
      </trkpt>
      <trkpt lat="42.02678" lon="9.16022">
        <ele>1417</ele>
        <time>2009-06-04T13:42:35Z</time>
      </trkpt>
      <trkpt lat="42.02677" lon="9.16">
        <ele>1417</ele>
        <time>2009-06-04T13:43:35Z</time>
      </trkpt>
      <trkpt lat="42.02682" lon="9.15981">
        <ele>1414</ele>
        <time>2009-06-04T13:44:35Z</time>
      </trkpt>
      <trkpt lat="42.027" lon="9.15987">
        <ele>1415</ele>
        <time>2009-06-04T13:45:35Z</time>
      </trkpt>
      <trkpt lat="42.02721" lon="9.15952">
        <ele>1417</ele>
        <time>2009-06-04T13:46:35Z</time>
      </trkpt>
      <trkpt lat="42.02759" lon="9.15939">
        <ele>1424</ele>
        <time>2009-06-04T13:47:35Z</time>
      </trkpt>
      <trkpt lat="42.02789" lon="9.15957">
        <ele>1429</ele>
        <time>2009-06-04T13:48:35Z</time>
      </trkpt>
      <trkpt lat="42.02807" lon="9.1598">
        <ele>1433</ele>
        <time>2009-06-04T13:49:35Z</time>
      </trkpt>
      <trkpt lat="42.02821" lon="9.16024">
        <ele>1434</ele>
        <time>2009-06-04T13:50:35Z</time>
      </trkpt>
      <trkpt lat="42.02826" lon="9.16073">
        <ele>1433</ele>
        <time>2009-06-04T13:51:35Z</time>
      </trkpt>
      <trkpt lat="42.02856" lon="9.16132">
        <ele>1429</ele>
        <time>2009-06-04T13:52:35Z</time>
      </trkpt>
      <trkpt lat="42.02876" lon="9.16196">
        <ele>1421</ele>
        <time>2009-06-04T13:53:35Z</time>
      </trkpt>
      <trkpt lat="42.02908" lon="9.16221">
        <ele>1414</ele>
        <time>2009-06-04T13:54:35Z</time>
      </trkpt>
      <trkpt lat="42.02929" lon="9.1628">
        <ele>1412</ele>
        <time>2009-06-04T13:55:35Z</time>
      </trkpt>
      <trkpt lat="42.02964" lon="9.16333">
        <ele>1417</ele>
        <time>2009-06-04T13:56:35Z</time>
      </trkpt>
      <trkpt lat="42.02953" lon="9.16359">
        <ele>1423</ele>
        <time>2009-06-04T13:57:35Z</time>
      </trkpt>
      <trkpt lat="42.0297" lon="9.1643">
        <ele>1429</ele>
        <time>2009-06-04T13:58:35Z</time>
      </trkpt>
      <trkpt lat="42.02986" lon="9.16495">
        <ele>1433</ele>
        <time>2009-06-04T13:59:35Z</time>
      </trkpt>
      <trkpt lat="42.03002" lon="9.16536">
        <ele>1441</ele>
        <time>2009-06-04T14:00:35Z</time>
      </trkpt>
      <trkpt lat="42.03011" lon="9.16593">
        <ele>1447</ele>
        <time>2009-06-04T14:01:35Z</time>
      </trkpt>
      <trkpt lat="42.0303" lon="9.1663">
        <ele>1453</ele>
        <time>2009-06-04T14:02:35Z</time>
      </trkpt>
      <trkpt lat="42.03047" lon="9.16664">
        <ele>1459</ele>
        <time>2009-06-04T14:03:35Z</time>
      </trkpt>
      <trkpt lat="42.03051" lon="9.16613">
        <ele>1465</ele>
        <time>2009-06-04T14:04:35Z</time>
      </trkpt>
      <trkpt lat="42.03038" lon="9.16564">
        <ele>1470</ele>
        <time>2009-06-04T14:05:35Z</time>
      </trkpt>
      <trkpt lat="42.0304" lon="9.16519">
        <ele>1473</ele>
        <time>2009-06-04T14:06:35Z</time>
      </trkpt>
      <trkpt lat="42.03048" lon="9.16483">
        <ele>1480</ele>
        <time>2009-06-04T14:07:35Z</time>
      </trkpt>
      <trkpt lat="42.03062" lon="9.1644">
        <ele>1487</ele>
        <time>2009-06-04T14:08:35Z</time>
      </trkpt>
      <trkpt lat="42.03071" lon="9.16474">
        <ele>1494</ele>
        <time>2009-06-04T14:09:35Z</time>
      </trkpt>
      <trkpt lat="42.03098" lon="9.16528">
        <ele>1502</ele>
        <time>2009-06-04T14:10:35Z</time>
      </trkpt>
      <trkpt lat="42.03115" lon="9.16562">
        <ele>1509</ele>
        <time>2009-06-04T14:11:35Z</time>
      </trkpt>
      <trkpt lat="42.0314" lon="9.16618">
        <ele>1517</ele>
        <time>2009-06-04T14:12:35Z</time>
      </trkpt>
      <trkpt lat="42.03148" lon="9.16614">
        <ele>1523</ele>
        <time>2009-06-04T14:13:35Z</time>
      </trkpt>
      <trkpt lat="42.0315" lon="9.16555">
        <ele>1529</ele>
        <time>2009-06-04T14:14:35Z</time>
      </trkpt>
      <trkpt lat="42.03147" lon="9.16509">
        <ele>1535</ele>
        <time>2009-06-04T14:15:35Z</time>
      </trkpt>
      <trkpt lat="42.03164" lon="9.16555">
        <ele>1542</ele>
        <time>2009-06-04T14:16:35Z</time>
      </trkpt>
      <trkpt lat="42.03192" lon="9.16582">
        <ele>1549</ele>
        <time>2009-06-04T14:17:35Z</time>
      </trkpt>
      <trkpt lat="42.03231" lon="9.16591">
        <ele>1555</ele>
        <time>2009-06-04T14:18:35Z</time>
      </trkpt>
      <trkpt lat="42.03268" lon="9.16606">
        <ele>1561</ele>
        <time>2009-06-04T14:19:35Z</time>
      </trkpt>
      <trkpt lat="42.03309" lon="9.16573">
        <ele>1566</ele>
        <time>2009-06-04T14:20:35Z</time>
      </trkpt>
      <trkpt lat="42.03344" lon="9.16598">
        <ele>1569</ele>
        <time>2009-06-04T14:21:35Z</time>
      </trkpt>
      <trkpt lat="42.0337" lon="9.16674">
        <ele>1571</ele>
        <time>2009-06-04T14:22:35Z</time>
      </trkpt>
      <trkpt lat="42.03408" lon="9.16736">
        <ele>1580</ele>
        <time>2009-06-04T14:23:35Z</time>
      </trkpt>
      <trkpt lat="42.03441" lon="9.16792">
        <ele>1587</ele>
        <time>2009-06-04T14:24:35Z</time>
      </trkpt>
      <trkpt lat="42.03492" lon="9.16814">
        <ele>1593</ele>
        <time>2009-06-04T14:25:35Z</time>
      </trkpt>
      <trkpt lat="42.03516" lon="9.16882">
        <ele>1596</ele>
        <time>2009-06-04T14:26:35Z</time>
      </trkpt>
      <trkpt lat="42.0358" lon="9.16917">
        <ele>1598</ele>
        <time>2009-06-04T14:27:35Z</time>
      </trkpt>
      <trkpt lat="42.03642" lon="9.16944">
        <ele>1599</ele>
        <time>2009-06-04T14:28:35Z</time>
      </trkpt>
      <trkpt lat="42.03695" lon="9.16989">
        <ele>1597</ele>
        <time>2009-06-04T14:29:35Z</time>
      </trkpt>
      <trkpt lat="42.0375" lon="9.17013">
        <ele>1597</ele>
        <time>2009-06-04T14:30:35Z</time>
      </trkpt>
      <trkpt lat="42.03778" lon="9.17078">
        <ele>1596</ele>
        <time>2009-06-04T14:31:35Z</time>
      </trkpt>
      <trkpt lat="42.03806" lon="9.17161">
        <ele>1593</ele>
        <time>2009-06-04T14:32:35Z</time>
      </trkpt>
      <trkpt lat="42.03858" lon="9.17227">
        <ele>1590</ele>
        <time>2009-06-04T14:33:35Z</time>
      </trkpt>
      <trkpt lat="42.0392" lon="9.17252">
        <ele>1584</ele>
        <time>2009-06-04T14:34:35Z</time>
      </trkpt>
      <trkpt lat="42.03973" lon="9.17233">
        <ele>1579</ele>
        <time>2009-06-04T14:35:35Z</time>
      </trkpt>
      <trkpt lat="42.04003" lon="9.17162">
        <ele>1571</ele>
        <time>2009-06-04T14:36:35Z</time>
      </trkpt>
      <trkpt lat="42.04029" lon="9.171">
        <ele>1563</ele>
        <time>2009-06-04T14:37:35Z</time>
      </trkpt>
      <trkpt lat="42.04081" lon="9.1705">
        <ele>1561</ele>
        <time>2009-06-04T14:38:35Z</time>
      </trkpt>
      <trkpt lat="42.0411" lon="9.16954">
        <ele>1560</ele>
        <time>2009-06-04T14:39:35Z</time>
      </trkpt>
      <trkpt lat="42.04136" lon="9.16864">
        <ele>1556</ele>
        <time>2009-06-04T14:40:35Z</time>
      </trkpt>
      <trkpt lat="42.04161" lon="9.1678">
        <ele>1554</ele>
        <time>2009-06-04T14:41:35Z</time>
      </trkpt>
      <trkpt lat="42.04203" lon="9.16732">
        <ele>1554</ele>
        <time>2009-06-04T14:42:35Z</time>
      </trkpt>
      <trkpt lat="42.04263" lon="9.16774">
        <ele>1556</ele>
        <time>2009-06-04T14:43:35Z</time>
      </trkpt>
      <trkpt lat="42.0432" lon="9.16785">
        <ele>1558</ele>
        <time>2009-06-04T14:44:35Z</time>
      </trkpt>
      <trkpt lat="42.04381" lon="9.16764">
        <ele>1558</ele>
        <time>2009-06-04T14:45:35Z</time>
      </trkpt>
      <trkpt lat="42.04402" lon="9.16705">
        <ele>1557</ele>
        <time>2009-06-04T14:46:35Z</time>
      </trkpt>
      <trkpt lat="42.0444" lon="9.16683">
        <ele>1553</ele>
        <time>2009-06-04T14:47:35Z</time>
      </trkpt>
      <trkpt lat="42.04499" lon="9.16685">
        <ele>1553</ele>
        <time>2009-06-04T14:48:35Z</time>
      </trkpt>
      <trkpt lat="42.04524" lon="9.16701">
        <ele>1552</ele>
        <time>2009-06-04T14:49:35Z</time>
      </trkpt>
      <trkpt lat="42.04535" lon="9.16695">
        <ele>1547</ele>
        <time>2009-06-04T14:50:35Z</time>
      </trkpt>
      <trkpt lat="42.0457" lon="9.16736">
        <ele>1546</ele>
        <time>2009-06-04T14:51:35Z</time>
      </trkpt>
      <trkpt lat="42.04622" lon="9.16768">
        <ele>1546</ele>
        <time>2009-06-04T14:52:35Z</time>
      </trkpt>
      <trkpt lat="42.0468" lon="9.16809">
        <ele>1543</ele>
        <time>2009-06-04T14:53:35Z</time>
      </trkpt>
      <trkpt lat="42.04742" lon="9.16812">
        <ele>1539</ele>
        <time>2009-06-04T14:54:35Z</time>
      </trkpt>
      <trkpt lat="42.048" lon="9.16847">
        <ele>1539</ele>
        <time>2009-06-04T14:55:35Z</time>
      </trkpt>
      <trkpt lat="42.04847" lon="9.16888">
        <ele>1538</ele>
        <time>2009-06-04T14:56:35Z</time>
      </trkpt>
      <trkpt lat="42.04874" lon="9.16964">
        <ele>1542</ele>
        <time>2009-06-04T14:57:35Z</time>
      </trkpt>
      <trkpt lat="42.04929" lon="9.17013">
        <ele>1541</ele>
        <time>2009-06-04T14:58:35Z</time>
      </trkpt>
      <trkpt lat="42.04986" lon="9.17032">
        <ele>1537</ele>
        <time>2009-06-04T14:59:35Z</time>
      </trkpt>
      <trkpt lat="42.05047" lon="9.17068">
        <ele>1533</ele>
        <time>2009-06-04T15:00:35Z</time>
      </trkpt>
      <trkpt lat="42.05072" lon="9.1701">
        <ele>1529</ele>
        <time>2009-06-04T15:01:35Z</time>
      </trkpt>
      <trkpt lat="42.05116" lon="9.16934">
        <ele>1526</ele>
        <time>2009-06-04T15:02:35Z</time>
      </trkpt>
      <trkpt lat="42.05166" lon="9.16866">
        <ele>1524</ele>
        <time>2009-06-04T15:03:35Z</time>
      </trkpt>
      <trkpt lat="42.05179" lon="9.16772">
        <ele>1522</ele>
        <time>2009-06-04T15:04:35Z</time>
      </trkpt>
      <trkpt lat="42.0521" lon="9.16737">
        <ele>1518</ele>
        <time>2009-06-04T15:05:35Z</time>
      </trkpt>
      <trkpt lat="42.05235" lon="9.16699">
        <ele>1516</ele>
        <time>2009-06-04T15:06:35Z</time>
      </trkpt>
      <trkpt lat="42.05288" lon="9.16721">
        <ele>1514</ele>
        <time>2009-06-04T15:07:35Z</time>
      </trkpt>
      <trkpt lat="42.05329" lon="9.16658">
        <ele>1510</ele>
        <time>2009-06-04T15:08:35Z</time>
      </trkpt>
      <trkpt lat="42.05376" lon="9.16633">
        <ele>1509</ele>
        <time>2009-06-04T15:09:35Z</time>
      </trkpt>
      <trkpt lat="42.05437" lon="9.16609">
        <ele>1511</ele>
        <time>2009-06-04T15:10:35Z</time>
      </trkpt>
      <trkpt lat="42.05485" lon="9.16557">
        <ele>1506</ele>
        <time>2009-06-04T15:11:35Z</time>
      </trkpt>
      <trkpt lat="42.05516" lon="9.16481">
        <ele>1499</ele>
        <time>2009-06-04T15:12:35Z</time>
      </trkpt>
      <trkpt lat="42.05536" lon="9.164">
        <ele>1492</ele>
        <time>2009-06-04T15:13:35Z</time>
      </trkpt>
      <trkpt lat="42.05566" lon="9.16321">
        <ele>1487</ele>
        <time>2009-06-04T15:14:35Z</time>
      </trkpt>
      <trkpt lat="42.05585" lon="9.16236">
        <ele>1480</ele>
        <time>2009-06-04T15:15:35Z</time>
      </trkpt>
      <trkpt lat="42.05587" lon="9.16173">
        <ele>1472</ele>
        <time>2009-06-04T15:16:35Z</time>
      </trkpt>
      <trkpt lat="42.05589" lon="9.16165">
        <ele>1466</ele>
        <time>2009-06-04T15:17:35Z</time>
      </trkpt>
      <trkpt lat="42.056" lon="9.16168">
        <ele>1466</ele>
        <time>2009-06-04T15:18:35Z</time>
      </trkpt>
      <trkpt lat="42.05623" lon="9.16152">
        <ele>1466</ele>
        <time>2009-06-04T15:19:35Z</time>
      </trkpt>
      <trkpt lat="42.05631" lon="9.16126">
        <ele>1467</ele>
        <time>2009-06-04T15:20:35Z</time>
      </trkpt>
      <trkpt lat="42.05644" lon="9.16139">
        <ele>1469</ele>
        <time>2009-06-04T15:21:35Z</time>
      </trkpt>
      <trkpt lat="42.05636" lon="9.16156">
        <ele>1469</ele>
        <time>2009-06-04T15:22:35Z</time>
      </trkpt>
      <trkpt lat="42.05641" lon="9.1615">
        <ele>1467</ele>
        <time>2009-06-04T15:23:35Z</time>
      </trkpt>
      <trkpt lat="42.0565" lon="9.16165">
        <ele>1466</ele>
        <time>2009-06-04T15:24:35Z</time>
      </trkpt>
      <trkpt lat="42.05647" lon="9.16165">
        <ele>1464</ele>
        <time>2009-06-04T15:25:35Z</time>
      </trkpt>
      <trkpt lat="42.05647" lon="9.16152">
        <ele>1463</ele>
        <time>2009-06-04T15:26:35Z</time>
      </trkpt>
      <trkpt lat="42.05658" lon="9.16149">
        <ele>1463</ele>
        <time>2009-06-04T15:27:35Z</time>
      </trkpt>
      <trkpt lat="42.05638" lon="9.16157">
        <ele>1466</ele>
        <time>2009-06-04T15:28:35Z</time>
      </trkpt>
      <trkpt lat="42.05647" lon="9.1615">
        <ele>1466</ele>
        <time>2009-06-04T15:29:35Z</time>
      </trkpt>
      <trkpt lat="42.05648" lon="9.16151">
        <ele>1466</ele>
        <time>2009-06-04T15:30:35Z</time>
      </trkpt>
      <trkpt lat="42.05647" lon="9.16157">
        <ele>1466</ele>
        <time>2009-06-04T15:31:35Z</time>
      </trkpt>
      <trkpt lat="42.05645" lon="9.1614">
        <ele>1466</ele>
        <time>2009-06-04T15:32:35Z</time>
      </trkpt>
      <trkpt lat="42.05628" lon="9.16157">
        <ele>1466</ele>
        <time>2009-06-04T15:33:35Z</time>
      </trkpt>
      <trkpt lat="42.05667" lon="9.1615">
        <ele>1466</ele>
        <time>2009-06-04T15:34:35Z</time>
      </trkpt>
      <trkpt lat="42.0569" lon="9.16209">
        <ele>1467</ele>
        <time>2009-06-04T15:35:35Z</time>
      </trkpt>
      <trkpt lat="42.05718" lon="9.16256">
        <ele>1470</ele>
        <time>2009-06-04T15:36:35Z</time>
      </trkpt>
      <trkpt lat="42.05749" lon="9.16319">
        <ele>1464</ele>
        <time>2009-06-04T15:37:35Z</time>
      </trkpt>
      <trkpt lat="42.05784" lon="9.16381">
        <ele>1459</ele>
        <time>2009-06-04T15:38:35Z</time>
      </trkpt>
      <trkpt lat="42.05812" lon="9.16475">
        <ele>1452</ele>
        <time>2009-06-04T15:39:35Z</time>
      </trkpt>
      <trkpt lat="42.05852" lon="9.16521">
        <ele>1445</ele>
        <time>2009-06-04T15:40:35Z</time>
      </trkpt>
      <trkpt lat="42.05881" lon="9.16607">
        <ele>1437</ele>
        <time>2009-06-04T15:41:35Z</time>
      </trkpt>
      <trkpt lat="42.05919" lon="9.16671">
        <ele>1431</ele>
        <time>2009-06-04T15:42:35Z</time>
      </trkpt>
      <trkpt lat="42.05948" lon="9.1674">
        <ele>1421</ele>
        <time>2009-06-04T15:43:35Z</time>
      </trkpt>
      <trkpt lat="42.0597" lon="9.16822">
        <ele>1412</ele>
        <time>2009-06-04T15:44:35Z</time>
      </trkpt>
      <trkpt lat="42.06011" lon="9.16787">
        <ele>1401</ele>
        <time>2009-06-04T15:45:35Z</time>
      </trkpt>
      <trkpt lat="42.06047" lon="9.16714">
        <ele>1393</ele>
        <time>2009-06-04T15:46:35Z</time>
      </trkpt>
      <trkpt lat="42.06097" lon="9.16703">
        <ele>1386</ele>
        <time>2009-06-04T15:47:35Z</time>
      </trkpt>
      <trkpt lat="42.06139" lon="9.16728">
        <ele>1381</ele>
        <time>2009-06-04T15:48:35Z</time>
      </trkpt>
      <trkpt lat="42.06205" lon="9.16761">
        <ele>1384</ele>
        <time>2009-06-04T15:49:35Z</time>
      </trkpt>
      <trkpt lat="42.06259" lon="9.16704">
        <ele>1377</ele>
        <time>2009-06-04T15:50:35Z</time>
      </trkpt>
      <trkpt lat="42.06309" lon="9.16677">
        <ele>1372</ele>
        <time>2009-06-04T15:51:35Z</time>
      </trkpt>
      <trkpt lat="42.06369" lon="9.16656">
        <ele>1370</ele>
        <time>2009-06-04T15:52:35Z</time>
      </trkpt>
      <trkpt lat="42.06405" lon="9.16678">
        <ele>1363</ele>
        <time>2009-06-04T15:53:35Z</time>
      </trkpt>
      <trkpt lat="42.06461" lon="9.1668">
        <ele>1358</ele>
        <time>2009-06-04T15:54:35Z</time>
      </trkpt>
      <trkpt lat="42.06526" lon="9.16701">
        <ele>1352</ele>
        <time>2009-06-04T15:55:35Z</time>
      </trkpt>
      <trkpt lat="42.06596" lon="9.16691">
        <ele>1348</ele>
        <time>2009-06-04T15:56:35Z</time>
      </trkpt>
      <trkpt lat="42.0666" lon="9.16693">
        <ele>1352</ele>
        <time>2009-06-04T15:57:35Z</time>
      </trkpt>
      <trkpt lat="42.06704" lon="9.16663">
        <ele>1353</ele>
        <time>2009-06-04T15:58:35Z</time>
      </trkpt>
      <trkpt lat="42.06738" lon="9.16593">
        <ele>1357</ele>
        <time>2009-06-04T15:59:35Z</time>
      </trkpt>
      <trkpt lat="42.06762" lon="9.16541">
        <ele>1363</ele>
        <time>2009-06-04T16:00:35Z</time>
      </trkpt>
      <trkpt lat="42.06751" lon="9.16459">
        <ele>1363</ele>
        <time>2009-06-04T16:01:35Z</time>
      </trkpt>
      <trkpt lat="42.0679" lon="9.16399">
        <ele>1357</ele>
        <time>2009-06-04T16:02:35Z</time>
      </trkpt>
      <trkpt lat="42.06823" lon="9.16351">
        <ele>1362</ele>
        <time>2009-06-04T16:03:35Z</time>
      </trkpt>
      <trkpt lat="42.06866" lon="9.16283">
        <ele>1367</ele>
        <time>2009-06-04T16:04:35Z</time>
      </trkpt>
      <trkpt lat="42.06911" lon="9.16207">
        <ele>1369</ele>
        <time>2009-06-04T16:05:35Z</time>
      </trkpt>
      <trkpt lat="42.06927" lon="9.16207">
        <ele>1363</ele>
        <time>2009-06-04T16:06:35Z</time>
      </trkpt>
      <trkpt lat="42.06971" lon="9.16136">
        <ele>1356</ele>
        <time>2009-06-04T16:07:35Z</time>
      </trkpt>
      <trkpt lat="42.06997" lon="9.16067">
        <ele>1354</ele>
        <time>2009-06-04T16:08:35Z</time>
      </trkpt>
      <trkpt lat="42.07026" lon="9.16003">
        <ele>1354</ele>
        <time>2009-06-04T16:09:35Z</time>
      </trkpt>
      <trkpt lat="42.07047" lon="9.15956">
        <ele>1357</ele>
        <time>2009-06-04T16:10:35Z</time>
      </trkpt>
      <trkpt lat="42.07098" lon="9.15891">
        <ele>1360</ele>
        <time>2009-06-04T16:11:35Z</time>
      </trkpt>
      <trkpt lat="42.07117" lon="9.15869">
        <ele>1361</ele>
        <time>2009-06-04T16:12:35Z</time>
      </trkpt>
      <trkpt lat="42.07126" lon="9.15838">
        <ele>1364</ele>
        <time>2009-06-04T16:13:35Z</time>
      </trkpt>
      <trkpt lat="42.07145" lon="9.1582">
        <ele>1366</ele>
        <time>2009-06-04T16:14:35Z</time>
      </trkpt>
      <trkpt lat="42.07159" lon="9.15793">
        <ele>1374</ele>
        <time>2009-06-04T16:15:35Z</time>
      </trkpt>
      <trkpt lat="42.07151" lon="9.15766">
        <ele>1381</ele>
        <time>2009-06-04T16:16:35Z</time>
      </trkpt>
      <trkpt lat="42.07166" lon="9.15741">
        <ele>1389</ele>
        <time>2009-06-04T16:17:35Z</time>
      </trkpt>
      <trkpt lat="42.07152" lon="9.15684">
        <ele>1397</ele>
        <time>2009-06-04T16:18:35Z</time>
      </trkpt>
      <trkpt lat="42.07125" lon="9.15666">
        <ele>1404</ele>
        <time>2009-06-04T16:19:35Z</time>
      </trkpt>
      <trkpt lat="42.07146" lon="9.15627">
        <ele>1412</ele>
        <time>2009-06-04T16:20:35Z</time>
      </trkpt>
      <trkpt lat="42.07146" lon="9.1556">
        <ele>1420</ele>
        <time>2009-06-04T16:21:35Z</time>
      </trkpt>
      <trkpt lat="42.07135" lon="9.15527">
        <ele>1427</ele>
        <time>2009-06-04T16:22:35Z</time>
      </trkpt>
      <trkpt lat="42.07143" lon="9.15485">
        <ele>1434</ele>
        <time>2009-06-04T16:23:35Z</time>
      </trkpt>
      <trkpt lat="42.07131" lon="9.15463">
        <ele>1441</ele>
        <time>2009-06-04T16:24:35Z</time>
      </trkpt>
      <trkpt lat="42.0716" lon="9.15417">
        <ele>1449</ele>
        <time>2009-06-04T16:25:35Z</time>
      </trkpt>
      <trkpt lat="42.07154" lon="9.15369">
        <ele>1456</ele>
        <time>2009-06-04T16:26:35Z</time>
      </trkpt>
      <trkpt lat="42.07146" lon="9.15342">
        <ele>1464</ele>
        <time>2009-06-04T16:27:35Z</time>
      </trkpt>
      <trkpt lat="42.0715" lon="9.15336">
        <ele>1471</ele>
        <time>2009-06-04T16:28:35Z</time>
      </trkpt>
      <trkpt lat="42.07146" lon="9.15338">
        <ele>1476</ele>
        <time>2009-06-04T16:29:35Z</time>
      </trkpt>
      <trkpt lat="42.0714" lon="9.15306">
        <ele>1477</ele>
        <time>2009-06-04T16:30:35Z</time>
      </trkpt>
      <trkpt lat="42.07122" lon="9.15257">
        <ele>1477</ele>
        <time>2009-06-04T16:31:35Z</time>
      </trkpt>
      <trkpt lat="42.07129" lon="9.15225">
        <ele>1484</ele>
        <time>2009-06-04T16:32:35Z</time>
      </trkpt>
      <trkpt lat="42.07123" lon="9.15208">
        <ele>1491</ele>
        <time>2009-06-04T16:33:35Z</time>
      </trkpt>
      <trkpt lat="42.07105" lon="9.15174">
        <ele>1499</ele>
        <time>2009-06-04T16:34:35Z</time>
      </trkpt>
      <trkpt lat="42.07101" lon="9.15145">
        <ele>1507</ele>
        <time>2009-06-04T16:35:35Z</time>
      </trkpt>
      <trkpt lat="42.07095" lon="9.15126">
        <ele>1515</ele>
        <time>2009-06-04T16:36:35Z</time>
      </trkpt>
      <trkpt lat="42.07096" lon="9.15101">
        <ele>1522</ele>
        <time>2009-06-04T16:37:35Z</time>
      </trkpt>
      <trkpt lat="42.071" lon="9.15071">
        <ele>1530</ele>
        <time>2009-06-04T16:38:35Z</time>
      </trkpt>
      <trkpt lat="42.0709" lon="9.15043">
        <ele>1535</ele>
        <time>2009-06-04T16:39:35Z</time>
      </trkpt>
      <trkpt lat="42.07072" lon="9.15037">
        <ele>1536</ele>
        <time>2009-06-04T16:40:35Z</time>
      </trkpt>
      <trkpt lat="42.07074" lon="9.15035">
        <ele>1535</ele>
        <time>2009-06-04T16:41:35Z</time>
      </trkpt>
      <trkpt lat="42.07088" lon="9.15041">
        <ele>1535</ele>
        <time>2009-06-04T16:42:35Z</time>
      </trkpt>
      <trkpt lat="42.07109" lon="9.1508">
        <ele>1535</ele>
        <time>2009-06-04T16:43:35Z</time>
      </trkpt>
      <trkpt lat="42.07129" lon="9.15062">
        <ele>1538</ele>
        <time>2009-06-04T16:44:35Z</time>
      </trkpt>
      <trkpt lat="42.07159" lon="9.1505">
        <ele>1544</ele>
        <time>2009-06-04T16:45:35Z</time>
      </trkpt>
      <trkpt lat="42.07182" lon="9.15073">
        <ele>1552</ele>
        <time>2009-06-04T16:46:35Z</time>
      </trkpt>
      <trkpt lat="42.0721" lon="9.15101">
        <ele>1558</ele>
        <time>2009-06-04T16:47:35Z</time>
      </trkpt>
      <trkpt lat="42.07244" lon="9.15114">
        <ele>1566</ele>
        <time>2009-06-04T16:48:35Z</time>
      </trkpt>
      <trkpt lat="42.07271" lon="9.15127">
        <ele>1573</ele>
        <time>2009-06-04T16:49:35Z</time>
      </trkpt>
      <trkpt lat="42.07274" lon="9.15159">
        <ele>1580</ele>
        <time>2009-06-04T16:50:35Z</time>
      </trkpt>
      <trkpt lat="42.07284" lon="9.15188">
        <ele>1587</ele>
        <time>2009-06-04T16:51:35Z</time>
      </trkpt>
      <trkpt lat="42.073" lon="9.15223">
        <ele>1599</ele>
        <time>2009-06-04T16:52:35Z</time>
      </trkpt>
      <trkpt lat="42.07318" lon="9.15267">
        <ele>1595</ele>
        <time>2009-06-04T16:53:35Z</time>
      </trkpt>
      <trkpt lat="42.07346" lon="9.15303">
        <ele>1603</ele>
        <time>2009-06-04T16:54:35Z</time>
      </trkpt>
      <trkpt lat="42.07376" lon="9.15322">
        <ele>1609</ele>
        <time>2009-06-04T16:55:35Z</time>
      </trkpt>
      <trkpt lat="42.07414" lon="9.15287">
        <ele>1614</ele>
        <time>2009-06-04T16:56:35Z</time>
      </trkpt>
      <trkpt lat="42.07432" lon="9.15262">
        <ele>1616</ele>
        <time>2009-06-04T16:57:35Z</time>
      </trkpt>
      <trkpt lat="42.07461" lon="9.15243">
        <ele>1624</ele>
        <time>2009-06-04T16:58:35Z</time>
      </trkpt>
      <trkpt lat="42.07506" lon="9.15204">
        <ele>1630</ele>
        <time>2009-06-04T16:59:35Z</time>
      </trkpt>
      <trkpt lat="42.07546" lon="9.15162">
        <ele>1637</ele>
        <time>2009-06-04T17:00:35Z</time>
      </trkpt>
      <trkpt lat="42.07573" lon="9.15163">
        <ele>1637</ele>
        <time>2009-06-04T17:01:35Z</time>
      </trkpt>
      <trkpt lat="42.07592" lon="9.1512">
        <ele>1640</ele>
        <time>2009-06-04T17:02:35Z</time>
      </trkpt>
      <trkpt lat="42.07607" lon="9.15085">
        <ele>1638</ele>
        <time>2009-06-04T17:03:35Z</time>
      </trkpt>
      <trkpt lat="42.07621" lon="9.15041">
        <ele>1632</ele>
        <time>2009-06-04T17:04:35Z</time>
      </trkpt>
      <trkpt lat="42.07651" lon="9.15003">
        <ele>1623</ele>
        <time>2009-06-04T17:05:35Z</time>
      </trkpt>
      <trkpt lat="42.07699" lon="9.15022">
        <ele>1612</ele>
        <time>2009-06-04T17:06:35Z</time>
      </trkpt>
      <trkpt lat="42.07698" lon="9.15036">
        <ele>1605</ele>
        <time>2009-06-04T17:07:35Z</time>
      </trkpt>
      <trkpt lat="42.07723" lon="9.15004">
        <ele>1608</ele>
        <time>2009-06-04T17:08:35Z</time>
      </trkpt>
      <trkpt lat="42.07736" lon="9.14994">
        <ele>1610</ele>
        <time>2009-06-04T17:09:35Z</time>
      </trkpt>
      <trkpt lat="42.07736" lon="9.15007">
        <ele>1612</ele>
        <time>2009-06-04T17:10:35Z</time>
      </trkpt>
      <trkpt lat="42.07752" lon="9.15012">
        <ele>1614</ele>
        <time>2009-06-04T17:11:35Z</time>
      </trkpt>
      <trkpt lat="42.07773" lon="9.15055">
        <ele>1614</ele>
        <time>2009-06-04T17:12:35Z</time>
      </trkpt>
      <trkpt lat="42.07777" lon="9.15075">
        <ele>1621</ele>
        <time>2009-06-04T17:13:35Z</time>
      </trkpt>
      <trkpt lat="42.0776" lon="9.1504">
        <ele>1625</ele>
        <time>2009-06-04T17:14:35Z</time>
      </trkpt>
      <trkpt lat="42.07759" lon="9.15022">
        <ele>1624</ele>
        <time>2009-06-04T17:15:35Z</time>
      </trkpt>
      <trkpt lat="42.07785" lon="9.1502">
        <ele>1621</ele>
        <time>2009-06-04T17:16:35Z</time>
      </trkpt>
    </trkseg>
  </trk>
</gpx>